sensor_id;sensor_type;location;lat;lon;timestamp;pressure;altitude;pressure_sealevel;temperature;humidity
55271;BME280;41132;47.162;9.470;2022-11-14T00:01:55;96575.50;;;5.22;100.00
55271;BME280;41132;47.162;9.470;2022-11-14T00:04:20;96581.53;;;5.34;100.00
55271;BME280;41132;47.162;9.470;2022-11-14T00:06:45;96573.13;;;5.31;100.00
55271;BME280;41132;47.162;9.470;2022-11-14T00:09:11;96579.13;;;5.42;100.00
55271;BME280;41132;47.162;9.470;2022-11-14T00:11:36;96578.22;;;5.32;100.00
55271;BME280;41132;47.162;9.470;2022-11-14T00:14:02;96564.38;;;5.32;100.00
55271;BME280;41132;47.162;9.470;2022-11-14T00:16:27;96582.00;;;5.28;100.00
55271;BME280;41132;47.162;9.470;2022-11-14T00:18:52;96594.19;;;5.28;100.00
55271;BME280;41132;47.162;9.470;2022-11-14T00:21:18;96570.31;;;5.11;100.00
55271;BME280;41132;47.162;9.470;2022-11-14T00:23:43;96587.66;;;5.22;100.00
55271;BME280;41132;47.162;9.470;2022-11-14T00:26:08;96577.50;;;5.30;100.00
55271;BME280;41132;47.162;9.470;2022-11-14T00:28:34;96563.22;;;5.25;100.00
55271;BME280;41132;47.162;9.470;2022-11-14T00:30:59;96553.28;;;5.18;100.00
55271;BME280;41132;47.162;9.470;2022-11-14T00:33:25;96576.22;;;5.25;100.00
55271;BME280;41132;47.162;9.470;2022-11-14T00:35:52;96566.75;;;5.23;100.00
55271;BME280;41132;47.162;9.470;2022-11-14T00:38:17;96564.41;;;4.98;100.00
55271;BME280;41132;47.162;9.470;2022-11-14T00:40:43;96558.84;;;5.02;100.00
55271;BME280;41132;47.162;9.470;2022-11-14T00:43:08;96548.78;;;5.09;100.00
55271;BME280;41132;47.162;9.470;2022-11-14T00:45:33;96558.94;;;5.12;100.00
55271;BME280;41132;47.162;9.470;2022-11-14T00:47:59;96560.50;;;5.03;100.00
55271;BME280;41132;47.162;9.470;2022-11-14T00:50:24;96537.53;;;5.20;100.00
55271;BME280;41132;47.162;9.470;2022-11-14T00:52:49;96545.22;;;5.21;100.00
55271;BME280;41132;47.162;9.470;2022-11-14T00:55:14;96536.94;;;5.28;100.00
55271;BME280;41132;47.162;9.470;2022-11-14T00:57:40;96531.38;;;5.21;100.00
55271;BME280;41132;47.162;9.470;2022-11-14T01:00:06;96523.84;;;5.18;100.00
55271;BME280;41132;47.162;9.470;2022-11-14T01:02:31;96520.72;;;5.24;100.00
55271;BME280;41132;47.162;9.470;2022-11-14T01:04:56;96522.25;;;5.27;100.00
55271;BME280;41132;47.162;9.470;2022-11-14T01:07:22;96521.72;;;5.12;100.00
55271;BME280;41132;47.162;9.470;2022-11-14T01:09:47;96510.94;;;5.16;100.00
55271;BME280;41132;47.162;9.470;2022-11-14T01:12:12;96517.56;;;5.09;100.00
55271;BME280;41132;47.162;9.470;2022-11-14T01:14:39;96521.22;;;5.18;100.00
55271;BME280;41132;47.162;9.470;2022-11-14T01:17:05;96520.75;;;5.13;100.00
55271;BME280;41132;47.162;9.470;2022-11-14T01:19:30;96522.06;;;5.07;100.00
55271;BME280;41132;47.162;9.470;2022-11-14T01:21:56;96510.47;;;5.11;100.00
55271;BME280;41132;47.162;9.470;2022-11-14T01:24:21;96510.13;;;5.16;100.00
55271;BME280;41132;47.162;9.470;2022-11-14T01:26:46;96505.28;;;5.11;100.00
55271;BME280;41132;47.162;9.470;2022-11-14T01:29:12;96511.22;;;5.02;100.00
55271;BME280;41132;47.162;9.470;2022-11-14T01:31:37;96507.53;;;5.05;100.00
55271;BME280;41132;47.162;9.470;2022-11-14T01:34:02;96493.56;;;5.06;100.00
55271;BME280;41132;47.162;9.470;2022-11-14T01:36:28;96495.78;;;5.21;100.00
55271;BME280;41132;47.162;9.470;2022-11-14T01:38:53;96500.06;;;5.11;100.00
55271;BME280;41132;47.162;9.470;2022-11-14T01:41:19;96496.41;;;5.14;100.00
55271;BME280;41132;47.162;9.470;2022-11-14T01:43:45;96493.47;;;5.07;100.00
55271;BME280;41132;47.162;9.470;2022-11-14T01:46:32;96504.81;;;4.95;100.00
55271;BME280;41132;47.162;9.470;2022-11-14T01:49:02;96508.72;;;5.00;100.00
55271;BME280;41132;47.162;9.470;2022-11-14T01:51:46;96511.94;;;4.93;100.00
55271;BME280;41132;47.162;9.470;2022-11-14T01:54:21;96511.09;;;4.92;100.00
55271;BME280;41132;47.162;9.470;2022-11-14T01:56:55;96518.78;;;4.82;100.00
55271;BME280;41132;47.162;9.470;2022-11-14T01:59:26;96511.81;;;4.83;100.00
55271;BME280;41132;47.162;9.470;2022-11-14T02:01:53;96509.56;;;4.78;100.00
55271;BME280;41132;47.162;9.470;2022-11-14T02:04:26;96520.44;;;4.72;100.00
55271;BME280;41132;47.162;9.470;2022-11-14T02:06:56;96515.00;;;4.64;100.00
55271;BME280;41132;47.162;9.470;2022-11-14T02:09:22;96514.31;;;4.73;100.00
55271;BME280;41132;47.162;9.470;2022-11-14T02:11:49;96515.94;;;4.86;100.00
55271;BME280;41132;47.162;9.470;2022-11-14T02:14:16;96511.22;;;4.91;100.00
55271;BME280;41132;47.162;9.470;2022-11-14T02:16:42;96502.00;;;4.87;100.00
55271;BME280;41132;47.162;9.470;2022-11-14T02:19:08;96502.44;;;5.03;100.00
55271;BME280;41132;47.162;9.470;2022-11-14T02:21:33;96511.56;;;4.97;100.00
55271;BME280;41132;47.162;9.470;2022-11-14T02:23:59;96519.59;;;4.94;100.00
55271;BME280;41132;47.162;9.470;2022-11-14T02:26:24;96514.03;;;4.99;100.00
55271;BME280;41132;47.162;9.470;2022-11-14T02:28:50;96515.00;;;4.98;100.00
55271;BME280;41132;47.162;9.470;2022-11-14T02:31:15;96513.69;;;4.92;100.00
55271;BME280;41132;47.162;9.470;2022-11-14T02:36:16;96491.59;;;4.87;100.00
55271;BME280;41132;47.162;9.470;2022-11-14T02:38:41;96510.50;;;5.00;100.00
55271;BME280;41132;47.162;9.470;2022-11-14T02:41:06;96504.69;;;4.96;100.00
55271;BME280;41132;47.162;9.470;2022-11-14T02:43:32;96508.47;;;5.03;100.00
55271;BME280;41132;47.162;9.470;2022-11-14T02:45:57;96501.81;;;5.11;100.00
55271;BME280;41132;47.162;9.470;2022-11-14T02:48:23;96502.69;;;5.00;100.00
55271;BME280;41132;47.162;9.470;2022-11-14T02:50:48;96498.41;;;5.10;100.00
55271;BME280;41132;47.162;9.470;2022-11-14T02:53:14;96495.09;;;5.08;100.00
55271;BME280;41132;47.162;9.470;2022-11-14T02:55:39;96497.09;;;5.16;100.00
55271;BME280;41132;47.162;9.470;2022-11-14T02:58:04;96492.50;;;5.08;100.00
55271;BME280;41132;47.162;9.470;2022-11-14T03:00:30;96497.69;;;5.08;100.00
55271;BME280;41132;47.162;9.470;2022-11-14T03:02:55;96495.44;;;5.15;100.00
55271;BME280;41132;47.162;9.470;2022-11-14T03:05:21;96496.38;;;5.25;100.00
55271;BME280;41132;47.162;9.470;2022-11-14T03:07:46;96505.81;;;5.26;100.00
55271;BME280;41132;47.162;9.470;2022-11-14T03:10:12;96495.44;;;5.15;100.00
55271;BME280;41132;47.162;9.470;2022-11-14T03:12:38;96497.94;;;5.16;100.00
55271;BME280;41132;47.162;9.470;2022-11-14T03:15:04;96501.81;;;5.11;100.00
55271;BME280;41132;47.162;9.470;2022-11-14T03:17:31;96501.59;;;5.14;100.00
55271;BME280;41132;47.162;9.470;2022-11-14T03:19:57;96508.44;;;5.15;100.00
55271;BME280;41132;47.162;9.470;2022-11-14T03:22:23;96504.31;;;5.12;100.00
55271;BME280;41132;47.162;9.470;2022-11-14T03:24:48;96513.66;;;5.15;100.00
55271;BME280;41132;47.162;9.470;2022-11-14T03:27:13;96514.84;;;5.11;100.00
55271;BME280;41132;47.162;9.470;2022-11-14T03:29:39;96516.75;;;5.09;100.00
55271;BME280;41132;47.162;9.470;2022-11-14T03:32:04;96512.38;;;5.09;100.00
55271;BME280;41132;47.162;9.470;2022-11-14T03:34:30;96511.78;;;5.06;100.00
55271;BME280;41132;47.162;9.470;2022-11-14T03:36:55;96509.75;;;5.20;100.00
55271;BME280;41132;47.162;9.470;2022-11-14T03:39:20;96519.09;;;5.12;100.00
55271;BME280;41132;47.162;9.470;2022-11-14T03:41:46;96514.50;;;5.04;100.00
55271;BME280;41132;47.162;9.470;2022-11-14T03:44:11;96518.66;;;5.07;100.00
55271;BME280;41132;47.162;9.470;2022-11-14T03:46:36;96510.34;;;5.01;100.00
55271;BME280;41132;47.162;9.470;2022-11-14T03:49:02;96523.59;;;5.10;100.00
55271;BME280;41132;47.162;9.470;2022-11-14T03:51:27;96508.59;;;5.13;100.00
55271;BME280;41132;47.162;9.470;2022-11-14T03:53:52;96514.00;;;5.21;100.00
55271;BME280;41132;47.162;9.470;2022-11-14T03:56:18;96501.00;;;5.10;100.00
55271;BME280;41132;47.162;9.470;2022-11-14T04:01:18;96498.19;;;5.02;100.00
55271;BME280;41132;47.162;9.470;2022-11-14T04:03:44;96518.50;;;5.08;100.00
55271;BME280;41132;47.162;9.470;2022-11-14T04:06:09;96519.09;;;5.12;100.00
55271;BME280;41132;47.162;9.470;2022-11-14T04:08:34;96522.78;;;5.09;100.00
55271;BME280;41132;47.162;9.470;2022-11-14T04:11:00;96511.22;;;5.02;100.00
55271;BME280;41132;47.162;9.470;2022-11-14T04:13:25;96508.47;;;5.03;100.00
55271;BME280;41132;47.162;9.470;2022-11-14T04:15:57;96511.56;;;5.09;100.00
55271;BME280;41132;47.162;9.470;2022-11-14T04:18:23;96521.09;;;5.08;100.00
55271;BME280;41132;47.162;9.470;2022-11-14T04:20:49;96500.81;;;5.02;100.00
55271;BME280;41132;47.162;9.470;2022-11-14T04:23:15;96510.50;;;5.00;100.00
55271;BME280;41132;47.162;9.470;2022-11-14T04:25:43;96516.03;;;5.18;100.00
55271;BME280;41132;47.162;9.470;2022-11-14T04:28:09;96513.91;;;5.12;100.00
55271;BME280;41132;47.162;9.470;2022-11-14T04:30:34;96516.84;;;5.18;100.00
55271;BME280;41132;47.162;9.470;2022-11-14T04:33:00;96510.22;;;5.14;100.00
55271;BME280;41132;47.162;9.470;2022-11-14T04:35:25;96509.63;;;5.11;100.00
55271;BME280;41132;47.162;9.470;2022-11-14T04:37:50;96500.78;;;5.13;100.00
55271;BME280;41132;47.162;9.470;2022-11-14T04:40:16;96494.38;;;5.17;100.00
55271;BME280;41132;47.162;9.470;2022-11-14T04:42:41;96490.69;;;5.20;100.00
55271;BME280;41132;47.162;9.470;2022-11-14T04:45:07;96495.06;;;5.19;100.00
55271;BME280;41132;47.162;9.470;2022-11-14T04:47:32;96485.38;;;5.21;100.00
55271;BME280;41132;47.162;9.470;2022-11-14T04:49:58;96496.81;;;5.30;100.00
55271;BME280;41132;47.162;9.470;2022-11-14T04:52:23;96484.06;;;5.27;100.00
55271;BME280;41132;47.162;9.470;2022-11-14T04:54:48;96477.78;;;5.30;100.00
55271;BME280;41132;47.162;9.470;2022-11-14T04:57:14;96473.63;;;5.38;100.00
55271;BME280;41132;47.162;9.470;2022-11-14T04:59:40;96474.06;;;5.43;100.00
55271;BME280;41132;47.162;9.470;2022-11-14T05:02:06;96474.47;;;5.81;100.00
55271;BME280;41132;47.162;9.470;2022-11-14T05:04:31;96465.41;;;6.17;100.00
55271;BME280;41132;47.162;9.470;2022-11-14T05:06:56;96455.91;;;6.78;100.00
55271;BME280;41132;47.162;9.470;2022-11-14T05:09:22;96461.63;;;7.12;100.00
55271;BME280;41132;47.162;9.470;2022-11-14T05:24:43;96433.06;;;8.26;100.00
55271;BME280;41132;47.162;9.470;2022-11-14T05:27:08;96411.47;;;8.24;100.00
55271;BME280;41132;47.162;9.470;2022-11-14T05:29:34;96420.09;;;8.34;100.00
55271;BME280;41132;47.162;9.470;2022-11-14T05:34:34;96398.84;;;8.56;100.00
55271;BME280;41132;47.162;9.470;2022-11-14T05:37:00;96409.56;;;8.63;100.00
55271;BME280;41132;47.162;9.470;2022-11-14T05:39:27;96405.88;;;8.74;100.00
55271;BME280;41132;47.162;9.470;2022-11-14T05:41:53;96399.84;;;8.73;100.00
55271;BME280;41132;47.162;9.470;2022-11-14T05:46:53;96396.38;;;9.36;100.00
55271;BME280;41132;47.162;9.470;2022-11-14T05:49:19;96374.38;;;9.29;100.00
55271;BME280;41132;47.162;9.470;2022-11-14T05:51:44;96383.28;;;9.36;100.00
55271;BME280;41132;47.162;9.470;2022-11-14T05:54:09;96381.13;;;9.32;100.00
55271;BME280;41132;47.162;9.470;2022-11-14T05:56:35;96383.44;;;9.35;100.00
55271;BME280;41132;47.162;9.470;2022-11-14T05:59:00;96375.88;;;9.32;100.00
55271;BME280;41132;47.162;9.470;2022-11-14T06:01:25;96371.91;;;9.28;100.00
55271;BME280;41132;47.162;9.470;2022-11-14T06:03:51;96381.03;;;9.41;98.97
55271;BME280;41132;47.162;9.470;2022-11-14T06:06:19;96388.56;;;9.45;99.87
55271;BME280;41132;47.162;9.470;2022-11-14T06:08:46;96376.97;;;9.65;95.86
55271;BME280;41132;47.162;9.470;2022-11-14T06:11:17;96365.84;;;9.71;94.14
55271;BME280;41132;47.162;9.470;2022-11-14T06:13:43;96384.16;;;9.89;91.97
55271;BME280;41132;47.162;9.470;2022-11-14T06:16:11;96382.63;;;10.04;89.31
55271;BME280;41132;47.162;9.470;2022-11-14T06:21:19;96372.59;;;10.00;89.58
55271;BME280;41132;47.162;9.470;2022-11-14T06:44:31;96409.69;;;10.31;83.66
55271;BME280;41132;47.162;9.470;2022-11-14T06:57:17;96397.34;;;10.58;81.75
55271;BME280;41132;47.162;9.470;2022-11-14T06:59:42;96412.78;;;10.61;80.43
55271;BME280;41132;47.162;9.470;2022-11-14T07:02:11;96405.78;;;10.70;79.61
55271;BME280;41132;47.162;9.470;2022-11-14T07:12:22;96412.03;;;10.85;76.77
55271;BME280;41132;47.162;9.470;2022-11-14T07:19:58;96391.31;;;10.65;77.55
55271;BME280;41132;47.162;9.470;2022-11-14T07:22:23;96402.00;;;10.80;74.13
55271;BME280;41132;47.162;9.470;2022-11-14T07:24:48;96400.72;;;10.84;75.59
55271;BME280;41132;47.162;9.470;2022-11-14T07:27:14;96406.16;;;10.91;75.51
55271;BME280;41132;47.162;9.470;2022-11-14T07:40:00;96418.84;;;11.28;74.82
55271;BME280;41132;47.162;9.470;2022-11-14T07:42:27;96415.59;;;11.51;68.81
55271;BME280;41132;47.162;9.470;2022-11-14T07:44:53;96410.22;;;11.61;67.97
55271;BME280;41132;47.162;9.470;2022-11-14T07:47:19;96415.13;;;11.64;71.55
55271;BME280;41132;47.162;9.470;2022-11-14T07:49:52;96416.91;;;11.71;68.60
55271;BME280;41132;47.162;9.470;2022-11-14T07:52:17;96413.31;;;11.73;69.72
55271;BME280;41132;47.162;9.470;2022-11-14T07:59:53;96414.16;;;11.89;66.79
55271;BME280;41132;47.162;9.470;2022-11-14T08:25:35;96426.81;;;11.94;64.06
55271;BME280;41132;47.162;9.470;2022-11-14T08:41:59;96442.22;;;11.81;65.63
55271;BME280;41132;47.162;9.470;2022-11-14T08:49:41;96458.53;;;12.01;65.08
55271;BME280;41132;47.162;9.470;2022-11-14T08:54:42;96460.84;;;11.96;65.17
55271;BME280;41132;47.162;9.470;2022-11-14T08:59:44;96483.34;;;11.98;64.42
55271;BME280;41132;47.162;9.470;2022-11-14T12:34:38;96469.88;;;13.98;52.51
55271;BME280;41132;47.162;9.470;2022-11-14T13:15:57;96455.09;;;13.89;48.54
55271;BME280;41132;47.162;9.470;2022-11-14T17:51:15;96445.84;;;13.16;47.39
55271;BME280;41132;47.162;9.470;2022-11-14T18:30:54;96473.03;;;12.77;48.26
55271;BME280;41132;47.162;9.470;2022-11-14T19:14:44;96470.97;;;12.40;48.33
55271;BME280;41132;47.162;9.470;2022-11-14T20:37:51;96491.38;;;11.80;50.54
55271;BME280;41132;47.162;9.470;2022-11-14T20:58:25;96489.63;;;12.22;48.05
55271;BME280;41132;47.162;9.470;2022-11-14T21:00:52;96481.56;;;12.15;49.78
55271;BME280;41132;47.162;9.470;2022-11-14T22:02:26;96458.38;;;12.10;47.57
55271;BME280;41132;47.162;9.470;2022-11-14T22:10:21;96452.97;;;12.04;48.94
55271;BME280;41132;47.162;9.470;2022-11-14T22:41:15;96430.25;;;11.86;47.83
55271;BME280;41132;47.162;9.470;2022-11-14T23:14:43;96438.31;;;10.51;60.64
55271;BME280;41132;47.162;9.470;2022-11-14T23:30:04;96425.38;;;10.49;58.40
55271;BME280;41132;47.162;9.470;2022-11-14T23:37:40;96414.75;;;10.33;59.26
55271;BME280;41132;47.162;9.470;2022-11-14T23:47:51;96416.31;;;10.17;62.76
55271;BME280;41132;47.162;9.470;2022-11-14T23:50:16;96414.91;;;10.05;64.71
55271;BME280;41132;47.162;9.470;2022-11-14T23:52:42;96412.59;;;10.02;64.08
